sensor_id;sensor_type;location;lat;lon;timestamp;pressure;altitude;pressure_sealevel;temperature;humidity
20752;BME280;10536;51.582;5.016;2022-12-24T00:03:48;100636.59;;;14.71;100.00
20752;BME280;10536;51.582;5.016;2022-12-24T00:08:49;100647.78;;;14.47;100.00
20752;BME280;10536;51.582;5.016;2022-12-24T00:13:50;100650.31;;;14.48;100.00
20752;BME280;10536;51.582;5.016;2022-12-24T00:18:51;100665.34;;;14.40;100.00
20752;BME280;10536;51.582;5.016;2022-12-24T00:23:52;100659.06;;;14.47;100.00
20752;BME280;10536;51.582;5.016;2022-12-24T00:28:52;100666.81;;;14.20;100.00
20752;BME280;10536;51.582;5.016;2022-12-24T00:33:53;100669.19;;;14.56;100.00
20752;BME280;10536;51.582;5.016;2022-12-24T00:38:53;100683.41;;;14.45;100.00
20752;BME280;10536;51.582;5.016;2022-12-24T00:44:00;100687.22;;;14.33;100.00
20752;BME280;10536;51.582;5.016;2022-12-24T00:49:01;100700.69;;;14.75;100.00
20752;BME280;10536;51.582;5.016;2022-12-24T00:54:02;100707.44;;;14.25;100.00
20752;BME280;10536;51.582;5.016;2022-12-24T00:59:02;100717.22;;;14.45;100.00
20752;BME280;10536;51.582;5.016;2022-12-24T01:04:03;100723.81;;;13.98;100.00
20752;BME280;10536;51.582;5.016;2022-12-24T01:09:22;100716.47;;;14.13;100.00
20752;BME280;10536;51.582;5.016;2022-12-24T01:14:23;100719.91;;;14.13;100.00
20752;BME280;10536;51.582;5.016;2022-12-24T01:19:23;100724.66;;;13.99;100.00
20752;BME280;10536;51.582;5.016;2022-12-24T01:24:24;100722.00;;;14.60;100.00
20752;BME280;10536;51.582;5.016;2022-12-24T01:29:24;100729.69;;;14.05;100.00
20752;BME280;10536;51.582;5.016;2022-12-24T01:34:25;100741.78;;;14.36;100.00
20752;BME280;10536;51.582;5.016;2022-12-24T01:39:25;100757.94;;;14.47;100.00
20752;BME280;10536;51.582;5.016;2022-12-24T01:44:29;100744.97;;;14.46;100.00
20752;BME280;10536;51.582;5.016;2022-12-24T01:49:30;100762.59;;;14.36;100.00
20752;BME280;10536;51.582;5.016;2022-12-24T01:54:34;100766.97;;;14.65;100.00
20752;BME280;10536;51.582;5.016;2022-12-24T01:59:37;100779.41;;;14.26;100.00
20752;BME280;10536;51.582;5.016;2022-12-24T02:04:43;100782.72;;;14.60;100.00
20752;BME280;10536;51.582;5.016;2022-12-24T02:09:46;100795.78;;;14.59;100.00
20752;BME280;10536;51.582;5.016;2022-12-24T02:14:49;100791.28;;;14.64;100.00
20752;BME280;10536;51.582;5.016;2022-12-24T02:26:11;100794.59;;;14.97;100.00
20752;BME280;10536;51.582;5.016;2022-12-24T02:31:19;100805.31;;;14.88;100.00
20752;BME280;10536;51.582;5.016;2022-12-24T02:36:32;100787.66;;;15.23;100.00
20752;BME280;10536;51.582;5.016;2022-12-24T02:41:37;100796.06;;;15.06;100.00
20752;BME280;10536;51.582;5.016;2022-12-24T02:46:59;100806.88;;;15.20;100.00
20752;BME280;10536;51.582;5.016;2022-12-24T02:52:00;100803.50;;;15.17;100.00
20752;BME280;10536;51.582;5.016;2022-12-24T02:57:15;100816.34;;;14.96;100.00
20752;BME280;10536;51.582;5.016;2022-12-24T03:07:39;100824.63;;;14.81;100.00
20752;BME280;10536;51.582;5.016;2022-12-24T03:12:43;100815.34;;;15.00;100.00
20752;BME280;10536;51.582;5.016;2022-12-24T03:17:46;100819.13;;;14.90;100.00
20752;BME280;10536;51.582;5.016;2022-12-24T03:22:48;100827.69;;;15.22;100.00
20752;BME280;10536;51.582;5.016;2022-12-24T03:27:48;100827.84;;;15.17;100.00
20752;BME280;10536;51.582;5.016;2022-12-24T03:32:49;100832.56;;;15.05;100.00
20752;BME280;10536;51.582;5.016;2022-12-24T03:37:49;100833.25;;;14.83;100.00
20752;BME280;10536;51.582;5.016;2022-12-24T03:42:50;100836.34;;;15.23;100.00
20752;BME280;10536;51.582;5.016;2022-12-24T03:47:50;100836.03;;;15.32;100.00
20752;BME280;10536;51.582;5.016;2022-12-24T03:52:50;100844.13;;;15.51;100.00
20752;BME280;10536;51.582;5.016;2022-12-24T03:57:51;100848.53;;;15.75;100.00
20752;BME280;10536;51.582;5.016;2022-12-24T04:02:52;100850.97;;;15.53;100.00
20752;BME280;10536;51.582;5.016;2022-12-24T04:07:52;100846.88;;;15.73;100.00
20752;BME280;10536;51.582;5.016;2022-12-24T04:12:53;100853.28;;;15.36;100.00
20752;BME280;10536;51.582;5.016;2022-12-24T04:17:53;100860.25;;;15.07;100.00
20752;BME280;10536;51.582;5.016;2022-12-24T04:22:54;100861.16;;;15.61;100.00
20752;BME280;10536;51.582;5.016;2022-12-24T04:27:54;100869.03;;;15.05;100.00
20752;BME280;10536;51.582;5.016;2022-12-24T04:32:55;100873.28;;;15.07;100.00
20752;BME280;10536;51.582;5.016;2022-12-24T04:37:55;100871.91;;;14.95;100.00
20752;BME280;10536;51.582;5.016;2022-12-24T04:42:55;100893.19;;;14.80;100.00
20752;BME280;10536;51.582;5.016;2022-12-24T04:47:56;100870.75;;;15.06;100.00
20752;BME280;10536;51.582;5.016;2022-12-24T04:52:57;100878.09;;;14.93;100.00
20752;BME280;10536;51.582;5.016;2022-12-24T04:57:58;100885.25;;;14.86;100.00
20752;BME280;10536;51.582;5.016;2022-12-24T05:02:58;100889.28;;;15.23;100.00
20752;BME280;10536;51.582;5.016;2022-12-24T05:07:58;100894.34;;;15.29;100.00
20752;BME280;10536;51.582;5.016;2022-12-24T05:12:59;100899.25;;;15.10;100.00
20752;BME280;10536;51.582;5.016;2022-12-24T05:17:59;100902.28;;;15.25;100.00
20752;BME280;10536;51.582;5.016;2022-12-24T05:23:00;100899.09;;;15.15;100.00
20752;BME280;10536;51.582;5.016;2022-12-24T05:28:19;100909.09;;;15.00;100.00
20752;BME280;10536;51.582;5.016;2022-12-24T05:33:20;100900.97;;;15.39;100.00
20752;BME280;10536;51.582;5.016;2022-12-24T05:38:20;100902.16;;;14.71;100.00
20752;BME280;10536;51.582;5.016;2022-12-24T05:43:21;100913.41;;;14.72;100.00
20752;BME280;10536;51.582;5.016;2022-12-24T05:48:21;100931.50;;;15.06;100.00
20752;BME280;10536;51.582;5.016;2022-12-24T05:53:22;100933.28;;;14.74;100.00
20752;BME280;10536;51.582;5.016;2022-12-24T05:58:22;100930.81;;;14.70;100.00
20752;BME280;10536;51.582;5.016;2022-12-24T06:03:23;100954.56;;;14.59;100.00
20752;BME280;10536;51.582;5.016;2022-12-24T06:08:23;100949.16;;;14.67;100.00
20752;BME280;10536;51.582;5.016;2022-12-24T06:13:24;100943.34;;;14.55;100.00
20752;BME280;10536;51.582;5.016;2022-12-24T06:18:25;100942.78;;;14.77;100.00
20752;BME280;10536;51.582;5.016;2022-12-24T06:23:28;100956.31;;;14.58;100.00
20752;BME280;10536;51.582;5.016;2022-12-24T06:28:34;100958.38;;;15.08;100.00
20752;BME280;10536;51.582;5.016;2022-12-24T06:33:35;100980.97;;;15.08;100.00
20752;BME280;10536;51.582;5.016;2022-12-24T06:38:35;100976.63;;;14.77;100.00
20752;BME280;10536;51.582;5.016;2022-12-24T06:43:35;100979.06;;;15.13;100.00
20752;BME280;10536;51.582;5.016;2022-12-24T06:48:36;100966.22;;;15.07;100.00
20752;BME280;10536;51.582;5.016;2022-12-24T06:53:37;100969.63;;;15.09;100.00
20752;BME280;10536;51.582;5.016;2022-12-24T06:58:38;100979.25;;;15.07;100.00
20752;BME280;10536;51.582;5.016;2022-12-24T07:03:39;100976.91;;;14.97;100.00
20752;BME280;10536;51.582;5.016;2022-12-24T07:08:40;100987.44;;;14.94;100.00
20752;BME280;10536;51.582;5.016;2022-12-24T07:13:40;100994.31;;;14.95;100.00
20752;BME280;10536;51.582;5.016;2022-12-24T07:18:41;100991.53;;;14.72;100.00
20752;BME280;10536;51.582;5.016;2022-12-24T07:23:41;101004.59;;;14.36;100.00
20752;BME280;10536;51.582;5.016;2022-12-24T07:28:42;101012.69;;;14.59;100.00
20752;BME280;10536;51.582;5.016;2022-12-24T07:33:42;101032.44;;;14.32;100.00
20752;BME280;10536;51.582;5.016;2022-12-24T07:38:42;101029.84;;;14.32;100.00
20752;BME280;10536;51.582;5.016;2022-12-24T07:43:43;101039.63;;;14.22;100.00
20752;BME280;10536;51.582;5.016;2022-12-24T07:48:43;101047.94;;;14.37;100.00
20752;BME280;10536;51.582;5.016;2022-12-24T07:53:44;101050.69;;;14.31;100.00
20752;BME280;10536;51.582;5.016;2022-12-24T07:58:49;101069.41;;;14.81;100.00
20752;BME280;10536;51.582;5.016;2022-12-24T08:03:49;101080.38;;;14.92;100.00
20752;BME280;10536;51.582;5.016;2022-12-24T08:08:53;101082.03;;;14.95;100.00
20752;BME280;10536;51.582;5.016;2022-12-24T08:13:54;101098.34;;;15.01;100.00
20752;BME280;10536;51.582;5.016;2022-12-24T08:18:54;101098.03;;;15.14;100.00
20752;BME280;10536;51.582;5.016;2022-12-24T08:23:54;101109.50;;;15.07;100.00
20752;BME280;10536;51.582;5.016;2022-12-24T08:28:55;101112.25;;;15.02;100.00
20752;BME280;10536;51.582;5.016;2022-12-24T08:33:55;101110.91;;;15.50;100.00
20752;BME280;10536;51.582;5.016;2022-12-24T08:38:56;101120.13;;;15.62;100.00
20752;BME280;10536;51.582;5.016;2022-12-24T08:43:56;101122.97;;;15.23;100.00
20752;BME280;10536;51.582;5.016;2022-12-24T08:48:57;101131.63;;;15.23;100.00
20752;BME280;10536;51.582;5.016;2022-12-24T08:53:57;101135.19;;;14.88;100.00
20752;BME280;10536;51.582;5.016;2022-12-24T08:58:58;101143.66;;;14.96;100.00
20752;BME280;10536;51.582;5.016;2022-12-24T09:04:00;101144.00;;;14.82;100.00
20752;BME280;10536;51.582;5.016;2022-12-24T09:09:01;101163.34;;;15.08;100.00
20752;BME280;10536;51.582;5.016;2022-12-24T09:14:02;101163.63;;;15.28;100.00
20752;BME280;10536;51.582;5.016;2022-12-24T09:19:02;101178.69;;;15.50;100.00
20752;BME280;10536;51.582;5.016;2022-12-24T09:24:03;101191.84;;;15.78;100.00
20752;BME280;10536;51.582;5.016;2022-12-24T09:29:04;101188.09;;;15.87;100.00
20752;BME280;10536;51.582;5.016;2022-12-24T09:34:04;101189.91;;;15.52;100.00
20752;BME280;10536;51.582;5.016;2022-12-24T09:39:05;101187.84;;;15.96;100.00
20752;BME280;10536;51.582;5.016;2022-12-24T09:44:19;101212.13;;;15.98;100.00
20752;BME280;10536;51.582;5.016;2022-12-24T09:49:36;101201.88;;;16.20;100.00
20752;BME280;10536;51.582;5.016;2022-12-24T09:54:40;101225.34;;;16.22;100.00
20752;BME280;10536;51.582;5.016;2022-12-24T09:59:44;101236.78;;;16.17;100.00
20752;BME280;10536;51.582;5.016;2022-12-24T10:04:47;101250.09;;;16.36;100.00
20752;BME280;10536;51.582;5.016;2022-12-24T10:25:47;101228.63;;;15.98;100.00
20752;BME280;10536;51.582;5.016;2022-12-24T10:30:48;101231.72;;;16.41;100.00
20752;BME280;10536;51.582;5.016;2022-12-24T10:35:53;101238.47;;;15.89;100.00
20752;BME280;10536;51.582;5.016;2022-12-24T10:40:57;101230.88;;;15.81;100.00
20752;BME280;10536;51.582;5.016;2022-12-24T10:46:05;101242.22;;;16.38;100.00
20752;BME280;10536;51.582;5.016;2022-12-24T10:56:40;101234.03;;;16.50;100.00
20752;BME280;10536;51.582;5.016;2022-12-24T11:01:44;101236.25;;;16.63;100.00
20752;BME280;10536;51.582;5.016;2022-12-24T11:07:05;101241.72;;;16.55;100.00
20752;BME280;10536;51.582;5.016;2022-12-24T11:12:21;101251.25;;;16.28;100.00
20752;BME280;10536;51.582;5.016;2022-12-24T11:17:22;101245.28;;;16.52;100.00
20752;BME280;10536;51.582;5.016;2022-12-24T11:22:28;101244.34;;;16.27;100.00
20752;BME280;10536;51.582;5.016;2022-12-24T11:27:41;101256.31;;;16.32;100.00
20752;BME280;10536;51.582;5.016;2022-12-24T11:33:18;101260.75;;;16.58;100.00
20752;BME280;10536;51.582;5.016;2022-12-24T11:38:24;101261.69;;;16.56;100.00
20752;BME280;10536;51.582;5.016;2022-12-24T11:43:27;101271.88;;;16.65;100.00
20752;BME280;10536;51.582;5.016;2022-12-24T11:48:44;101276.13;;;16.39;100.00
20752;BME280;10536;51.582;5.016;2022-12-24T11:54:18;101273.19;;;16.78;100.00
20752;BME280;10536;51.582;5.016;2022-12-24T11:59:27;101272.63;;;16.41;100.00
20752;BME280;10536;51.582;5.016;2022-12-24T12:04:32;101268.72;;;16.54;100.00
20752;BME280;10536;51.582;5.016;2022-12-24T12:09:38;101282.03;;;16.74;100.00
20752;BME280;10536;51.582;5.016;2022-12-24T12:14:44;101280.16;;;16.50;100.00
20752;BME280;10536;51.582;5.016;2022-12-24T12:19:52;101298.25;;;16.28;100.00
20752;BME280;10536;51.582;5.016;2022-12-24T12:24:55;101295.63;;;16.56;100.00
20752;BME280;10536;51.582;5.016;2022-12-24T12:30:09;101294.69;;;16.88;100.00
20752;BME280;10536;51.582;5.016;2022-12-24T12:35:18;101299.91;;;16.60;100.00
20752;BME280;10536;51.582;5.016;2022-12-24T12:40:31;101308.38;;;16.67;100.00
20752;BME280;10536;51.582;5.016;2022-12-24T12:46:01;101308.72;;;16.86;100.00
20752;BME280;10536;51.582;5.016;2022-12-24T12:51:09;101311.69;;;16.44;100.00
20752;BME280;10536;51.582;5.016;2022-12-24T13:01:39;101309.69;;;16.52;100.00
20752;BME280;10536;51.582;5.016;2022-12-24T13:12:13;101314.44;;;16.09;100.00
20752;BME280;10536;51.582;5.016;2022-12-24T13:17:22;101317.03;;;16.09;100.00
20752;BME280;10536;51.582;5.016;2022-12-24T13:22:31;101320.00;;;15.95;100.00
20752;BME280;10536;51.582;5.016;2022-12-24T13:27:33;101321.44;;;15.76;100.00
20752;BME280;10536;51.582;5.016;2022-12-24T13:32:37;101326.28;;;15.55;100.00
20752;BME280;10536;51.582;5.016;2022-12-24T13:37:38;101322.00;;;15.53;100.00
20752;BME280;10536;51.582;5.016;2022-12-24T13:47:45;101329.97;;;15.47;100.00
20752;BME280;10536;51.582;5.016;2022-12-24T13:52:52;101327.78;;;15.30;100.00
20752;BME280;10536;51.582;5.016;2022-12-24T13:57:57;101333.69;;;15.00;100.00
20752;BME280;10536;51.582;5.016;2022-12-24T14:03:03;101332.25;;;15.25;100.00
20752;BME280;10536;51.582;5.016;2022-12-24T14:08:11;101337.22;;;15.35;100.00
20752;BME280;10536;51.582;5.016;2022-12-24T14:18:39;101344.78;;;15.09;100.00
20752;BME280;10536;51.582;5.016;2022-12-24T14:23:56;101349.38;;;14.58;100.00
20752;BME280;10536;51.582;5.016;2022-12-24T14:29:07;101353.94;;;14.47;100.00
20752;BME280;10536;51.582;5.016;2022-12-24T14:34:15;101355.47;;;14.59;100.00
20752;BME280;10536;51.582;5.016;2022-12-24T14:39:29;101359.53;;;14.71;100.00
20752;BME280;10536;51.582;5.016;2022-12-24T14:44:45;101367.78;;;14.49;100.00
20752;BME280;10536;51.582;5.016;2022-12-24T14:55:26;101385.34;;;14.39;100.00
20752;BME280;10536;51.582;5.016;2022-12-24T15:00:26;101403.28;;;14.08;100.00
20752;BME280;10536;51.582;5.016;2022-12-24T15:05:28;101407.72;;;14.00;100.00
20752;BME280;10536;51.582;5.016;2022-12-24T15:10:37;101409.22;;;13.65;100.00
20752;BME280;10536;51.582;5.016;2022-12-24T15:15:41;101411.91;;;13.59;100.00
20752;BME280;10536;51.582;5.016;2022-12-24T15:20:45;101406.81;;;13.53;100.00
20752;BME280;10536;51.582;5.016;2022-12-24T15:25:47;101409.13;;;13.71;100.00
20752;BME280;10536;51.582;5.016;2022-12-24T15:30:50;101404.75;;;13.73;100.00
20752;BME280;10536;51.582;5.016;2022-12-24T15:36:04;101427.97;;;13.25;100.00
20752;BME280;10536;51.582;5.016;2022-12-24T15:41:20;101425.72;;;13.00;100.00
20752;BME280;10536;51.582;5.016;2022-12-24T15:46:24;101424.97;;;12.92;100.00
20752;BME280;10536;51.582;5.016;2022-12-24T15:51:33;101427.72;;;12.83;100.00
20752;BME280;10536;51.582;5.016;2022-12-24T15:56:40;101431.81;;;12.99;100.00
20752;BME280;10536;51.582;5.016;2022-12-24T16:01:43;101441.56;;;12.79;100.00
20752;BME280;10536;51.582;5.016;2022-12-24T16:06:53;101433.00;;;12.75;100.00
20752;BME280;10536;51.582;5.016;2022-12-24T16:11:53;101445.25;;;12.61;100.00
20752;BME280;10536;51.582;5.016;2022-12-24T16:16:54;101441.88;;;12.53;100.00
20752;BME280;10536;51.582;5.016;2022-12-24T16:21:59;101447.09;;;12.51;100.00
20752;BME280;10536;51.582;5.016;2022-12-24T16:27:23;101446.00;;;12.69;100.00
20752;BME280;10536;51.582;5.016;2022-12-24T16:32:32;101445.06;;;12.79;100.00
20752;BME280;10536;51.582;5.016;2022-12-24T16:37:33;101447.00;;;12.57;100.00
20752;BME280;10536;51.582;5.016;2022-12-24T16:42:33;101447.09;;;12.50;100.00
20752;BME280;10536;51.582;5.016;2022-12-24T16:47:55;101446.41;;;12.34;100.00
20752;BME280;10536;51.582;5.016;2022-12-24T16:52:56;101439.53;;;12.33;100.00
20752;BME280;10536;51.582;5.016;2022-12-24T16:57:56;101434.56;;;12.11;100.00
20752;BME280;10536;51.582;5.016;2022-12-24T17:02:57;101435.78;;;12.57;100.00
20752;BME280;10536;51.582;5.016;2022-12-24T17:08:00;101433.19;;;12.57;100.00
20752;BME280;10536;51.582;5.016;2022-12-24T17:13:01;101438.59;;;12.38;100.00
20752;BME280;10536;51.582;5.016;2022-12-24T17:18:01;101429.16;;;12.33;100.00
20752;BME280;10536;51.582;5.016;2022-12-24T17:23:02;101450.66;;;12.44;100.00
20752;BME280;10536;51.582;5.016;2022-12-24T17:28:03;101453.28;;;12.38;100.00
20752;BME280;10536;51.582;5.016;2022-12-24T17:33:03;101451.66;;;12.29;100.00
20752;BME280;10536;51.582;5.016;2022-12-24T17:38:04;101447.50;;;12.11;100.00
20752;BME280;10536;51.582;5.016;2022-12-24T17:43:04;101448.28;;;12.21;100.00
20752;BME280;10536;51.582;5.016;2022-12-24T17:48:05;101454.34;;;12.20;100.00
20752;BME280;10536;51.582;5.016;2022-12-24T17:53:05;101440.53;;;12.16;100.00
20752;BME280;10536;51.582;5.016;2022-12-24T17:58:05;101453.75;;;11.85;100.00
20752;BME280;10536;51.582;5.016;2022-12-24T18:03:11;101440.78;;;11.90;100.00
20752;BME280;10536;51.582;5.016;2022-12-24T18:08:12;101444.16;;;12.01;100.00
20752;BME280;10536;51.582;5.016;2022-12-24T18:13:13;101441.56;;;12.03;100.00
20752;BME280;10536;51.582;5.016;2022-12-24T18:18:14;101433.66;;;12.14;100.00
20752;BME280;10536;51.582;5.016;2022-12-24T18:23:14;101442.13;;;12.31;100.00
20752;BME280;10536;51.582;5.016;2022-12-24T18:28:15;101442.97;;;12.30;100.00
20752;BME280;10536;51.582;5.016;2022-12-24T18:33:15;101438.84;;;12.12;100.00
20752;BME280;10536;51.582;5.016;2022-12-24T18:38:16;101427.59;;;12.15;100.00
20752;BME280;10536;51.582;5.016;2022-12-24T18:43:16;101433.72;;;12.06;100.00
20752;BME280;10536;51.582;5.016;2022-12-24T18:48:17;101437.22;;;12.05;100.00
20752;BME280;10536;51.582;5.016;2022-12-24T18:53:17;101433.88;;;11.83;100.00
20752;BME280;10536;51.582;5.016;2022-12-24T18:58:18;101436.31;;;12.09;100.00
20752;BME280;10536;51.582;5.016;2022-12-24T19:03:18;101440.78;;;11.90;100.00
20752;BME280;10536;51.582;5.016;2022-12-24T19:08:19;101435.59;;;11.90;100.00
20752;BME280;10536;51.582;5.016;2022-12-24T19:13:19;101443.94;;;12.24;100.00
20752;BME280;10536;51.582;5.016;2022-12-24T19:18:20;101448.28;;;12.21;100.00
20752;BME280;10536;51.582;5.016;2022-12-24T19:23:20;101450.91;;;12.16;100.00
20752;BME280;10536;51.582;5.016;2022-12-24T19:28:21;101449.22;;;12.14;100.00
20752;BME280;10536;51.582;5.016;2022-12-24T19:33:21;101453.34;;;12.33;100.00
20752;BME280;10536;51.582;5.016;2022-12-24T19:38:21;101453.34;;;12.35;100.00
20752;BME280;10536;51.582;5.016;2022-12-24T19:43:22;101459.69;;;12.03;100.00
20752;BME280;10536;51.582;5.016;2022-12-24T19:48:22;101458.19;;;12.66;100.00
20752;BME280;10536;51.582;5.016;2022-12-24T19:53:23;101449.75;;;12.48;100.00
20752;BME280;10536;51.582;5.016;2022-12-24T19:58:25;101468.84;;;12.39;100.00
20752;BME280;10536;51.582;5.016;2022-12-24T20:03:25;101462.75;;;12.42;100.00
20752;BME280;10536;51.582;5.016;2022-12-24T20:08:25;101468.91;;;12.30;100.00
20752;BME280;10536;51.582;5.016;2022-12-24T20:13:26;101461.03;;;12.42;100.00
20752;BME280;10536;51.582;5.016;2022-12-24T20:18:26;101472.72;;;12.79;100.00
20752;BME280;10536;51.582;5.016;2022-12-24T20:23:27;101474.47;;;12.80;100.00
20752;BME280;10536;51.582;5.016;2022-12-24T20:28:30;101480.41;;;12.88;100.00
20752;BME280;10536;51.582;5.016;2022-12-24T20:33:31;101486.41;;;12.95;100.00
20752;BME280;10536;51.582;5.016;2022-12-24T20:38:31;101470.94;;;12.86;100.00
20752;BME280;10536;51.582;5.016;2022-12-24T20:43:32;101470.97;;;12.81;100.00
20752;BME280;10536;51.582;5.016;2022-12-24T20:48:33;101463.25;;;12.75;100.00
20752;BME280;10536;51.582;5.016;2022-12-24T20:53:34;101456.38;;;12.71;100.00
20752;BME280;10536;51.582;5.016;2022-12-24T20:58:35;101453.97;;;12.55;100.00
20752;BME280;10536;51.582;5.016;2022-12-24T21:03:35;101450.66;;;12.41;100.00
20752;BME280;10536;51.582;5.016;2022-12-24T21:08:36;101456.44;;;12.66;100.00
20752;BME280;10536;51.582;5.016;2022-12-24T21:13:36;101452.00;;;12.76;100.00
20752;BME280;10536;51.582;5.016;2022-12-24T21:18:37;101449.03;;;13.05;100.00
20752;BME280;10536;51.582;5.016;2022-12-24T21:23:37;101444.72;;;12.28;100.00
20752;BME280;10536;51.582;5.016;2022-12-24T21:28:37;101429.06;;;12.39;100.00
20752;BME280;10536;51.582;5.016;2022-12-24T21:33:38;101430.81;;;12.37;100.00
20752;BME280;10536;51.582;5.016;2022-12-24T21:38:39;101422.88;;;12.51;100.00
20752;BME280;10536;51.582;5.016;2022-12-24T21:43:40;101413.50;;;12.39;100.00
20752;BME280;10536;51.582;5.016;2022-12-24T21:48:41;101416.25;;;12.27;100.00
20752;BME280;10536;51.582;5.016;2022-12-24T21:53:59;101410.25;;;12.21;100.00
20752;BME280;10536;51.582;5.016;2022-12-24T21:59:18;101406.53;;;12.44;100.00
20752;BME280;10536;51.582;5.016;2022-12-24T22:04:19;101390.25;;;12.31;100.00
20752;BME280;10536;51.582;5.016;2022-12-24T22:09:19;101395.88;;;12.67;100.00
20752;BME280;10536;51.582;5.016;2022-12-24T22:14:38;101393.25;;;12.69;100.00
20752;BME280;10536;51.582;5.016;2022-12-24T22:19:39;101391.50;;;12.71;100.00
20752;BME280;10536;51.582;5.016;2022-12-24T22:24:39;101400.19;;;12.70;100.00
20752;BME280;10536;51.582;5.016;2022-12-24T22:29:39;101404.50;;;12.69;100.00
20752;BME280;10536;51.582;5.016;2022-12-24T22:34:40;101406.13;;;12.78;100.00
20752;BME280;10536;51.582;5.016;2022-12-24T22:39:41;101406.22;;;12.69;100.00
20752;BME280;10536;51.582;5.016;2022-12-24T22:44:41;101405.47;;;12.62;100.00
20752;BME280;10536;51.582;5.016;2022-12-24T22:49:42;101405.38;;;12.70;100.00
20752;BME280;10536;51.582;5.016;2022-12-24T22:54:42;101418.16;;;12.85;100.00
20752;BME280;10536;51.582;5.016;2022-12-24T22:59:43;101419.00;;;12.86;100.00
20752;BME280;10536;51.582;5.016;2022-12-24T23:04:44;101429.78;;;13.20;100.00
20752;BME280;10536;51.582;5.016;2022-12-24T23:09:44;101434.94;;;12.56;100.00
20752;BME280;10536;51.582;5.016;2022-12-24T23:14:45;101437.63;;;12.49;100.00
20752;BME280;10536;51.582;5.016;2022-12-24T23:19:57;101448.69;;;12.61;100.00
20752;BME280;10536;51.582;5.016;2022-12-24T23:24:59;101452.91;;;12.73;100.00
20752;BME280;10536;51.582;5.016;2022-12-24T23:30:00;101452.09;;;12.70;100.00
20752;BME280;10536;51.582;5.016;2022-12-24T23:35:00;101444.13;;;12.85;100.00
20752;BME280;10536;51.582;5.016;2022-12-24T23:40:02;101439.41;;;13.12;100.00
20752;BME280;10536;51.582;5.016;2022-12-24T23:45:02;101438.50;;;13.16;100.00
20752;BME280;10536;51.582;5.016;2022-12-24T23:50:04;101446.75;;;12.79;100.00
20752;BME280;10536;51.582;5.016;2022-12-24T23:55:04;101420.88;;;13.39;100.00
